sensor_id;sensor_type;location;lat;lon;timestamp;temperature;humidity
6307;DHT22;3186;54.062;9.962;2024-02-21T00:00:45;8.70;99.90
6307;DHT22;3186;54.062;9.962;2024-02-21T00:03:11;8.70;99.90
6307;DHT22;3186;54.062;9.962;2024-02-21T00:05:37;8.70;99.90
6307;DHT22;3186;54.062;9.962;2024-02-21T00:08:02;8.70;99.90
6307;DHT22;3186;54.062;9.962;2024-02-21T00:10:28;8.70;99.90
6307;DHT22;3186;54.062;9.962;2024-02-21T00:12:54;8.70;99.90
6307;DHT22;3186;54.062;9.962;2024-02-21T00:15:20;8.70;99.90
6307;DHT22;3186;54.062;9.962;2024-02-21T00:17:46;8.70;99.90
6307;DHT22;3186;54.062;9.962;2024-02-21T00:20:12;8.70;99.90
6307;DHT22;3186;54.062;9.962;2024-02-21T00:22:38;8.70;99.90
6307;DHT22;3186;54.062;9.962;2024-02-21T00:25:04;8.80;99.90
6307;DHT22;3186;54.062;9.962;2024-02-21T00:27:30;8.80;99.90
6307;DHT22;3186;54.062;9.962;2024-02-21T00:29:56;8.70;99.90
6307;DHT22;3186;54.062;9.962;2024-02-21T00:32:22;8.80;99.90
6307;DHT22;3186;54.062;9.962;2024-02-21T00:34:47;8.80;99.90
6307;DHT22;3186;54.062;9.962;2024-02-21T00:37:13;8.80;99.90
6307;DHT22;3186;54.062;9.962;2024-02-21T00:39:39;8.80;99.90
6307;DHT22;3186;54.062;9.962;2024-02-21T00:42:04;8.80;99.90
6307;DHT22;3186;54.062;9.962;2024-02-21T00:44:30;8.80;99.90
6307;DHT22;3186;54.062;9.962;2024-02-21T00:46:56;8.80;99.90
6307;DHT22;3186;54.062;9.962;2024-02-21T00:49:21;8.80;99.90
6307;DHT22;3186;54.062;9.962;2024-02-21T00:51:47;8.80;99.90
6307;DHT22;3186;54.062;9.962;2024-02-21T00:54:13;8.80;99.90
6307;DHT22;3186;54.062;9.962;2024-02-21T00:56:39;8.80;99.90
6307;DHT22;3186;54.062;9.962;2024-02-21T00:59:04;8.80;99.90
6307;DHT22;3186;54.062;9.962;2024-02-21T01:01:30;8.80;99.90
6307;DHT22;3186;54.062;9.962;2024-02-21T01:03:55;8.80;99.90
6307;DHT22;3186;54.062;9.962;2024-02-21T01:06:21;8.80;99.90
6307;DHT22;3186;54.062;9.962;2024-02-21T01:08:47;8.80;99.90
6307;DHT22;3186;54.062;9.962;2024-02-21T01:11:14;8.80;99.90
6307;DHT22;3186;54.062;9.962;2024-02-21T01:13:39;8.90;99.90
6307;DHT22;3186;54.062;9.962;2024-02-21T01:16:05;8.90;99.90
6307;DHT22;3186;54.062;9.962;2024-02-21T01:18:33;8.90;99.90
6307;DHT22;3186;54.062;9.962;2024-02-21T01:20:58;8.80;99.90
6307;DHT22;3186;54.062;9.962;2024-02-21T01:23:24;8.80;99.90
6307;DHT22;3186;54.062;9.962;2024-02-21T01:25:50;8.80;99.90
6307;DHT22;3186;54.062;9.962;2024-02-21T01:28:17;8.80;99.90
6307;DHT22;3186;54.062;9.962;2024-02-21T01:30:42;8.90;99.90
6307;DHT22;3186;54.062;9.962;2024-02-21T01:33:08;8.80;99.90
6307;DHT22;3186;54.062;9.962;2024-02-21T01:35:35;8.80;99.90
6307;DHT22;3186;54.062;9.962;2024-02-21T01:38:01;8.80;99.90
6307;DHT22;3186;54.062;9.962;2024-02-21T01:40:26;8.80;99.90
6307;DHT22;3186;54.062;9.962;2024-02-21T01:42:54;8.90;99.90
6307;DHT22;3186;54.062;9.962;2024-02-21T01:45:20;8.80;99.90
6307;DHT22;3186;54.062;9.962;2024-02-21T01:47:46;8.80;99.90
6307;DHT22;3186;54.062;9.962;2024-02-21T01:50:12;8.80;99.90
6307;DHT22;3186;54.062;9.962;2024-02-21T01:52:38;8.90;99.90
6307;DHT22;3186;54.062;9.962;2024-02-21T01:55:05;8.90;99.90
6307;DHT22;3186;54.062;9.962;2024-02-21T01:57:31;8.90;99.90
6307;DHT22;3186;54.062;9.962;2024-02-21T01:59:56;8.90;99.90
6307;DHT22;3186;54.062;9.962;2024-02-21T02:02:22;8.80;99.90
6307;DHT22;3186;54.062;9.962;2024-02-21T02:04:49;8.80;99.90
6307;DHT22;3186;54.062;9.962;2024-02-21T02:07:14;8.80;99.90
6307;DHT22;3186;54.062;9.962;2024-02-21T02:09:40;8.90;99.90
6307;DHT22;3186;54.062;9.962;2024-02-21T02:12:06;8.90;99.90
6307;DHT22;3186;54.062;9.962;2024-02-21T02:14:32;8.80;99.90
6307;DHT22;3186;54.062;9.962;2024-02-21T02:16:57;8.80;99.90
6307;DHT22;3186;54.062;9.962;2024-02-21T02:19:23;8.90;99.90
6307;DHT22;3186;54.062;9.962;2024-02-21T02:21:56;8.80;99.90
6307;DHT22;3186;54.062;9.962;2024-02-21T02:24:25;8.80;99.90
6307;DHT22;3186;54.062;9.962;2024-02-21T02:26:53;8.90;99.90
6307;DHT22;3186;54.062;9.962;2024-02-21T02:29:19;8.90;99.90
6307;DHT22;3186;54.062;9.962;2024-02-21T02:31:45;8.90;99.90
6307;DHT22;3186;54.062;9.962;2024-02-21T02:34:10;8.90;99.90
6307;DHT22;3186;54.062;9.962;2024-02-21T02:36:36;8.90;99.90
6307;DHT22;3186;54.062;9.962;2024-02-21T02:39:02;8.80;99.90
6307;DHT22;3186;54.062;9.962;2024-02-21T02:41:27;8.80;99.90
6307;DHT22;3186;54.062;9.962;2024-02-21T02:43:53;8.80;99.90
6307;DHT22;3186;54.062;9.962;2024-02-21T02:46:18;8.90;99.90
6307;DHT22;3186;54.062;9.962;2024-02-21T02:48:44;8.90;99.90
6307;DHT22;3186;54.062;9.962;2024-02-21T02:51:10;8.80;99.90
6307;DHT22;3186;54.062;9.962;2024-02-21T02:53:36;8.80;99.90
6307;DHT22;3186;54.062;9.962;2024-02-21T02:56:02;8.80;99.90
6307;DHT22;3186;54.062;9.962;2024-02-21T02:58:28;8.80;99.90
6307;DHT22;3186;54.062;9.962;2024-02-21T03:00:54;8.80;99.90
6307;DHT22;3186;54.062;9.962;2024-02-21T03:03:19;8.90;99.90
6307;DHT22;3186;54.062;9.962;2024-02-21T03:05:46;8.80;99.90
6307;DHT22;3186;54.062;9.962;2024-02-21T03:08:11;8.80;99.90
6307;DHT22;3186;54.062;9.962;2024-02-21T03:10:37;8.90;99.90
6307;DHT22;3186;54.062;9.962;2024-02-21T03:13:03;8.80;99.90
6307;DHT22;3186;54.062;9.962;2024-02-21T03:15:29;8.90;99.90
6307;DHT22;3186;54.062;9.962;2024-02-21T03:17:54;8.90;99.90
6307;DHT22;3186;54.062;9.962;2024-02-21T03:20:20;8.80;99.90
6307;DHT22;3186;54.062;9.962;2024-02-21T03:22:46;8.90;99.90
6307;DHT22;3186;54.062;9.962;2024-02-21T03:25:11;8.90;99.90
6307;DHT22;3186;54.062;9.962;2024-02-21T03:27:38;8.90;99.90
6307;DHT22;3186;54.062;9.962;2024-02-21T03:30:04;8.90;99.90
6307;DHT22;3186;54.062;9.962;2024-02-21T03:32:30;8.90;99.90
6307;DHT22;3186;54.062;9.962;2024-02-21T03:34:56;8.80;99.90
6307;DHT22;3186;54.062;9.962;2024-02-21T03:37:22;8.90;99.90
6307;DHT22;3186;54.062;9.962;2024-02-21T03:39:47;8.90;99.90
6307;DHT22;3186;54.062;9.962;2024-02-21T03:42:13;8.90;99.90
6307;DHT22;3186;54.062;9.962;2024-02-21T03:44:39;8.90;99.90
6307;DHT22;3186;54.062;9.962;2024-02-21T03:47:04;8.90;99.90
6307;DHT22;3186;54.062;9.962;2024-02-21T03:49:30;8.90;99.90
6307;DHT22;3186;54.062;9.962;2024-02-21T03:51:56;8.90;99.90
6307;DHT22;3186;54.062;9.962;2024-02-21T03:54:22;8.90;99.90
6307;DHT22;3186;54.062;9.962;2024-02-21T03:56:47;8.80;99.90
6307;DHT22;3186;54.062;9.962;2024-02-21T03:59:14;8.80;99.90
6307;DHT22;3186;54.062;9.962;2024-02-21T04:01:40;8.90;99.90
6307;DHT22;3186;54.062;9.962;2024-02-21T04:04:05;8.90;99.90
6307;DHT22;3186;54.062;9.962;2024-02-21T04:06:32;8.90;99.90
6307;DHT22;3186;54.062;9.962;2024-02-21T04:08:57;8.90;99.90
6307;DHT22;3186;54.062;9.962;2024-02-21T04:11:23;8.90;99.90
6307;DHT22;3186;54.062;9.962;2024-02-21T04:13:49;8.90;99.90
6307;DHT22;3186;54.062;9.962;2024-02-21T04:16:16;8.90;99.90
6307;DHT22;3186;54.062;9.962;2024-02-21T04:18:42;8.90;99.90
6307;DHT22;3186;54.062;9.962;2024-02-21T04:21:09;8.90;99.90
6307;DHT22;3186;54.062;9.962;2024-02-21T04:23:34;8.90;99.90
6307;DHT22;3186;54.062;9.962;2024-02-21T04:26:00;8.90;99.90
6307;DHT22;3186;54.062;9.962;2024-02-21T04:28:26;8.80;99.90
6307;DHT22;3186;54.062;9.962;2024-02-21T04:30:52;8.80;99.90
6307;DHT22;3186;54.062;9.962;2024-02-21T04:33:18;8.70;99.90
6307;DHT22;3186;54.062;9.962;2024-02-21T04:35:43;8.70;99.90
6307;DHT22;3186;54.062;9.962;2024-02-21T04:38:09;8.80;99.90
6307;DHT22;3186;54.062;9.962;2024-02-21T04:40:35;8.70;99.90
6307;DHT22;3186;54.062;9.962;2024-02-21T04:43:01;8.70;99.90
6307;DHT22;3186;54.062;9.962;2024-02-21T04:45:26;8.70;99.90
6307;DHT22;3186;54.062;9.962;2024-02-21T04:47:52;8.70;99.90
6307;DHT22;3186;54.062;9.962;2024-02-21T04:50:17;8.70;99.90
6307;DHT22;3186;54.062;9.962;2024-02-21T04:52:43;8.70;99.90
6307;DHT22;3186;54.062;9.962;2024-02-21T04:55:09;8.70;99.90
6307;DHT22;3186;54.062;9.962;2024-02-21T04:57:34;8.70;99.90
6307;DHT22;3186;54.062;9.962;2024-02-21T05:00:00;8.60;99.90
6307;DHT22;3186;54.062;9.962;2024-02-21T05:02:26;8.60;99.90
6307;DHT22;3186;54.062;9.962;2024-02-21T05:04:52;8.70;99.90
6307;DHT22;3186;54.062;9.962;2024-02-21T05:07:18;8.60;99.90
6307;DHT22;3186;54.062;9.962;2024-02-21T05:09:45;8.70;99.90
6307;DHT22;3186;54.062;9.962;2024-02-21T05:12:11;8.70;99.90
6307;DHT22;3186;54.062;9.962;2024-02-21T05:14:37;8.70;99.90
6307;DHT22;3186;54.062;9.962;2024-02-21T05:17:04;8.70;99.90
6307;DHT22;3186;54.062;9.962;2024-02-21T05:19:29;8.70;99.90
6307;DHT22;3186;54.062;9.962;2024-02-21T05:21:55;8.70;99.90
6307;DHT22;3186;54.062;9.962;2024-02-21T05:24:21;8.60;99.90
6307;DHT22;3186;54.062;9.962;2024-02-21T05:26:46;8.60;99.90
6307;DHT22;3186;54.062;9.962;2024-02-21T05:29:12;8.60;99.90
6307;DHT22;3186;54.062;9.962;2024-02-21T05:34:19;8.60;99.90
6307;DHT22;3186;54.062;9.962;2024-02-21T05:36:45;8.60;99.90
6307;DHT22;3186;54.062;9.962;2024-02-21T05:39:11;8.60;99.90
6307;DHT22;3186;54.062;9.962;2024-02-21T05:41:37;8.70;99.90
6307;DHT22;3186;54.062;9.962;2024-02-21T05:44:03;8.60;99.90
6307;DHT22;3186;54.062;9.962;2024-02-21T05:46:28;8.70;99.90
6307;DHT22;3186;54.062;9.962;2024-02-21T05:48:54;8.60;99.90
6307;DHT22;3186;54.062;9.962;2024-02-21T05:51:20;8.60;99.90
6307;DHT22;3186;54.062;9.962;2024-02-21T05:53:45;8.60;99.90
6307;DHT22;3186;54.062;9.962;2024-02-21T05:56:11;8.60;99.90
6307;DHT22;3186;54.062;9.962;2024-02-21T05:58:37;8.60;99.90
6307;DHT22;3186;54.062;9.962;2024-02-21T06:01:03;8.60;99.90
6307;DHT22;3186;54.062;9.962;2024-02-21T06:03:30;8.60;99.90
6307;DHT22;3186;54.062;9.962;2024-02-21T06:05:56;8.60;99.90
6307;DHT22;3186;54.062;9.962;2024-02-21T06:08:21;8.60;99.90
6307;DHT22;3186;54.062;9.962;2024-02-21T06:10:47;8.60;99.90
6307;DHT22;3186;54.062;9.962;2024-02-21T06:13:14;8.60;99.90
6307;DHT22;3186;54.062;9.962;2024-02-21T06:15:40;8.50;99.90
6307;DHT22;3186;54.062;9.962;2024-02-21T06:18:05;8.60;99.90
6307;DHT22;3186;54.062;9.962;2024-02-21T06:20:31;8.50;99.90
6307;DHT22;3186;54.062;9.962;2024-02-21T06:22:57;8.50;99.90
6307;DHT22;3186;54.062;9.962;2024-02-21T06:25:23;8.50;99.90
6307;DHT22;3186;54.062;9.962;2024-02-21T06:27:48;8.40;99.90
6307;DHT22;3186;54.062;9.962;2024-02-21T06:30:14;8.50;99.90
6307;DHT22;3186;54.062;9.962;2024-02-21T06:32:40;8.50;99.90
6307;DHT22;3186;54.062;9.962;2024-02-21T06:35:05;8.50;99.90
6307;DHT22;3186;54.062;9.962;2024-02-21T06:37:31;8.50;99.90
6307;DHT22;3186;54.062;9.962;2024-02-21T06:39:58;8.50;99.90
6307;DHT22;3186;54.062;9.962;2024-02-21T06:42:26;8.60;99.90
6307;DHT22;3186;54.062;9.962;2024-02-21T06:44:52;8.60;99.90
6307;DHT22;3186;54.062;9.962;2024-02-21T06:47:17;8.50;99.90
6307;DHT22;3186;54.062;9.962;2024-02-21T06:49:47;8.50;99.90
6307;DHT22;3186;54.062;9.962;2024-02-21T06:52:13;8.50;99.90
6307;DHT22;3186;54.062;9.962;2024-02-21T06:54:41;8.50;99.90
6307;DHT22;3186;54.062;9.962;2024-02-21T06:57:07;8.50;99.90
6307;DHT22;3186;54.062;9.962;2024-02-21T06:59:33;8.50;99.90
6307;DHT22;3186;54.062;9.962;2024-02-21T07:01:58;8.40;99.90
6307;DHT22;3186;54.062;9.962;2024-02-21T07:04:26;8.50;99.90
6307;DHT22;3186;54.062;9.962;2024-02-21T07:06:52;8.50;99.90
6307;DHT22;3186;54.062;9.962;2024-02-21T07:09:18;8.60;99.90
6307;DHT22;3186;54.062;9.962;2024-02-21T07:11:44;8.60;99.90
6307;DHT22;3186;54.062;9.962;2024-02-21T07:14:09;8.50;99.90
6307;DHT22;3186;54.062;9.962;2024-02-21T07:16:35;8.50;99.90
6307;DHT22;3186;54.062;9.962;2024-02-21T07:19:00;8.60;99.90
6307;DHT22;3186;54.062;9.962;2024-02-21T07:21:26;8.50;99.90
6307;DHT22;3186;54.062;9.962;2024-02-21T07:23:52;8.50;99.90
6307;DHT22;3186;54.062;9.962;2024-02-21T07:26:17;8.50;99.90
6307;DHT22;3186;54.062;9.962;2024-02-21T07:28:43;8.50;99.90
6307;DHT22;3186;54.062;9.962;2024-02-21T07:31:09;8.40;99.90
6307;DHT22;3186;54.062;9.962;2024-02-21T07:33:34;8.40;99.90
6307;DHT22;3186;54.062;9.962;2024-02-21T07:36:01;8.50;99.90
6307;DHT22;3186;54.062;9.962;2024-02-21T07:38:26;8.40;99.90
6307;DHT22;3186;54.062;9.962;2024-02-21T07:40:52;8.40;99.90
6307;DHT22;3186;54.062;9.962;2024-02-21T07:43:18;8.40;99.90
6307;DHT22;3186;54.062;9.962;2024-02-21T07:45:43;8.40;99.90
6307;DHT22;3186;54.062;9.962;2024-02-21T07:48:09;8.50;99.90
6307;DHT22;3186;54.062;9.962;2024-02-21T07:50:34;8.40;99.90
6307;DHT22;3186;54.062;9.962;2024-02-21T07:53:00;8.40;99.90
6307;DHT22;3186;54.062;9.962;2024-02-21T07:55:26;8.40;99.90
6307;DHT22;3186;54.062;9.962;2024-02-21T07:57:51;8.40;99.90
6307;DHT22;3186;54.062;9.962;2024-02-21T08:00:17;8.30;99.90
6307;DHT22;3186;54.062;9.962;2024-02-21T08:02:51;8.30;99.90
6307;DHT22;3186;54.062;9.962;2024-02-21T08:05:17;8.20;99.90
6307;DHT22;3186;54.062;9.962;2024-02-21T08:07:42;8.30;99.90
6307;DHT22;3186;54.062;9.962;2024-02-21T08:10:08;8.30;99.90
6307;DHT22;3186;54.062;9.962;2024-02-21T08:12:34;8.30;99.90
6307;DHT22;3186;54.062;9.962;2024-02-21T08:15:00;8.30;99.90
6307;DHT22;3186;54.062;9.962;2024-02-21T08:17:26;8.30;99.90
6307;DHT22;3186;54.062;9.962;2024-02-21T08:19:51;8.30;99.90
6307;DHT22;3186;54.062;9.962;2024-02-21T08:22:17;8.40;99.90
6307;DHT22;3186;54.062;9.962;2024-02-21T08:24:43;8.40;99.90
6307;DHT22;3186;54.062;9.962;2024-02-21T08:27:08;8.30;99.90
6307;DHT22;3186;54.062;9.962;2024-02-21T08:29:34;8.20;99.90
6307;DHT22;3186;54.062;9.962;2024-02-21T08:31:59;8.30;99.90
6307;DHT22;3186;54.062;9.962;2024-02-21T08:34:25;8.30;99.90
6307;DHT22;3186;54.062;9.962;2024-02-21T08:36:51;8.30;99.90
6307;DHT22;3186;54.062;9.962;2024-02-21T08:39:16;8.40;99.90
6307;DHT22;3186;54.062;9.962;2024-02-21T08:41:42;8.40;99.90
6307;DHT22;3186;54.062;9.962;2024-02-21T08:44:08;8.40;99.90
6307;DHT22;3186;54.062;9.962;2024-02-21T08:46:34;8.30;99.90
6307;DHT22;3186;54.062;9.962;2024-02-21T08:48:59;8.40;99.90
6307;DHT22;3186;54.062;9.962;2024-02-21T08:51:25;8.40;99.90
6307;DHT22;3186;54.062;9.962;2024-02-21T08:53:52;8.40;99.90
6307;DHT22;3186;54.062;9.962;2024-02-21T08:56:19;8.40;99.90
6307;DHT22;3186;54.062;9.962;2024-02-21T08:58:45;8.40;99.90
6307;DHT22;3186;54.062;9.962;2024-02-21T09:01:10;8.40;99.90
6307;DHT22;3186;54.062;9.962;2024-02-21T09:03:37;8.40;99.90
6307;DHT22;3186;54.062;9.962;2024-02-21T09:06:06;8.50;99.90
6307;DHT22;3186;54.062;9.962;2024-02-21T09:08:33;8.50;99.90
6307;DHT22;3186;54.062;9.962;2024-02-21T09:11:00;8.50;99.90
6307;DHT22;3186;54.062;9.962;2024-02-21T09:13:26;8.50;99.90
6307;DHT22;3186;54.062;9.962;2024-02-21T09:15:52;8.50;99.90
6307;DHT22;3186;54.062;9.962;2024-02-21T09:18:18;8.50;99.90
6307;DHT22;3186;54.062;9.962;2024-02-21T09:20:44;8.50;99.90
6307;DHT22;3186;54.062;9.962;2024-02-21T09:23:10;8.60;99.90
6307;DHT22;3186;54.062;9.962;2024-02-21T09:25:36;8.60;99.90
6307;DHT22;3186;54.062;9.962;2024-02-21T09:28:02;8.60;99.90
6307;DHT22;3186;54.062;9.962;2024-02-21T09:30:28;8.60;99.90
6307;DHT22;3186;54.062;9.962;2024-02-21T09:32:54;8.60;99.90
6307;DHT22;3186;54.062;9.962;2024-02-21T09:35:20;8.70;99.90
6307;DHT22;3186;54.062;9.962;2024-02-21T09:37:48;8.80;99.90
6307;DHT22;3186;54.062;9.962;2024-02-21T09:40:15;8.80;99.90
6307;DHT22;3186;54.062;9.962;2024-02-21T09:42:42;8.80;99.90
6307;DHT22;3186;54.062;9.962;2024-02-21T09:50:36;9.00;99.90
6307;DHT22;3186;54.062;9.962;2024-02-21T09:53:06;9.10;99.90
6307;DHT22;3186;54.062;9.962;2024-02-21T09:55:33;9.00;99.90
6307;DHT22;3186;54.062;9.962;2024-02-21T09:58:01;9.10;99.90
6307;DHT22;3186;54.062;9.962;2024-02-21T10:00:28;9.10;99.90
6307;DHT22;3186;54.062;9.962;2024-02-21T10:02:54;9.20;99.90
6307;DHT22;3186;54.062;9.962;2024-02-21T10:05:20;9.20;99.90
6307;DHT22;3186;54.062;9.962;2024-02-21T10:07:46;9.30;99.90
6307;DHT22;3186;54.062;9.962;2024-02-21T10:10:12;9.40;99.90
6307;DHT22;3186;54.062;9.962;2024-02-21T10:12:51;9.40;99.90
6307;DHT22;3186;54.062;9.962;2024-02-21T10:15:20;9.40;99.90
6307;DHT22;3186;54.062;9.962;2024-02-21T10:17:57;9.40;99.90
6307;DHT22;3186;54.062;9.962;2024-02-21T10:20:23;9.60;99.90
6307;DHT22;3186;54.062;9.962;2024-02-21T10:22:48;9.50;99.90
6307;DHT22;3186;54.062;9.962;2024-02-21T10:25:14;9.50;99.90
6307;DHT22;3186;54.062;9.962;2024-02-21T10:27:40;9.60;99.90
6307;DHT22;3186;54.062;9.962;2024-02-21T10:30:13;9.70;99.90
6307;DHT22;3186;54.062;9.962;2024-02-21T10:32:55;9.70;99.90
6307;DHT22;3186;54.062;9.962;2024-02-21T10:35:34;9.80;99.90
6307;DHT22;3186;54.062;9.962;2024-02-21T10:38:00;9.90;99.90
6307;DHT22;3186;54.062;9.962;2024-02-21T10:40:27;9.90;99.90
6307;DHT22;3186;54.062;9.962;2024-02-21T10:42:57;10.00;99.90
6307;DHT22;3186;54.062;9.962;2024-02-21T10:47:56;10.00;99.90
6307;DHT22;3186;54.062;9.962;2024-02-21T10:50:25;10.00;99.90
6307;DHT22;3186;54.062;9.962;2024-02-21T10:53:09;9.90;99.90
6307;DHT22;3186;54.062;9.962;2024-02-21T10:55:47;10.00;99.90
6307;DHT22;3186;54.062;9.962;2024-02-21T10:58:15;10.10;99.90
6307;DHT22;3186;54.062;9.962;2024-02-21T11:00:41;10.20;99.90
6307;DHT22;3186;54.062;9.962;2024-02-21T11:03:09;10.20;99.90
6307;DHT22;3186;54.062;9.962;2024-02-21T11:05:35;10.10;99.90
6307;DHT22;3186;54.062;9.962;2024-02-21T11:08:01;10.20;99.90
6307;DHT22;3186;54.062;9.962;2024-02-21T11:10:27;10.20;99.90
6307;DHT22;3186;54.062;9.962;2024-02-21T11:13:08;10.30;99.90
6307;DHT22;3186;54.062;9.962;2024-02-21T11:15:34;10.20;99.90
6307;DHT22;3186;54.062;9.962;2024-02-21T11:18:00;10.30;99.90
6307;DHT22;3186;54.062;9.962;2024-02-21T11:20:33;10.30;99.90
6307;DHT22;3186;54.062;9.962;2024-02-21T11:23:02;10.30;99.90
6307;DHT22;3186;54.062;9.962;2024-02-21T11:25:28;10.30;99.90
6307;DHT22;3186;54.062;9.962;2024-02-21T11:30:32;10.40;99.90
6307;DHT22;3186;54.062;9.962;2024-02-21T11:33:00;10.30;99.90
6307;DHT22;3186;54.062;9.962;2024-02-21T11:35:31;10.40;99.90
6307;DHT22;3186;54.062;9.962;2024-02-21T11:38:07;10.50;99.90
6307;DHT22;3186;54.062;9.962;2024-02-21T11:40:34;10.40;99.90
6307;DHT22;3186;54.062;9.962;2024-02-21T11:43:00;10.50;99.90
6307;DHT22;3186;54.062;9.962;2024-02-21T11:45:26;10.50;99.90
6307;DHT22;3186;54.062;9.962;2024-02-21T11:47:52;10.60;99.90
6307;DHT22;3186;54.062;9.962;2024-02-21T11:50:18;10.40;99.90
6307;DHT22;3186;54.062;9.962;2024-02-21T11:52:44;10.40;99.90
6307;DHT22;3186;54.062;9.962;2024-02-21T11:55:11;10.50;99.90
6307;DHT22;3186;54.062;9.962;2024-02-21T11:57:39;10.60;99.90
6307;DHT22;3186;54.062;9.962;2024-02-21T12:00:16;10.60;99.90
6307;DHT22;3186;54.062;9.962;2024-02-21T12:02:43;10.50;99.90
6307;DHT22;3186;54.062;9.962;2024-02-21T12:05:09;10.60;99.90
6307;DHT22;3186;54.062;9.962;2024-02-21T12:07:37;10.70;99.90
6307;DHT22;3186;54.062;9.962;2024-02-21T12:10:12;10.60;99.90
6307;DHT22;3186;54.062;9.962;2024-02-21T12:12:38;10.60;99.90
6307;DHT22;3186;54.062;9.962;2024-02-21T12:15:05;10.70;99.90
6307;DHT22;3186;54.062;9.962;2024-02-21T12:17:35;10.70;99.90
6307;DHT22;3186;54.062;9.962;2024-02-21T12:20:02;10.60;99.90
6307;DHT22;3186;54.062;9.962;2024-02-21T12:22:31;10.60;99.90
6307;DHT22;3186;54.062;9.962;2024-02-21T12:24:58;10.60;99.90
6307;DHT22;3186;54.062;9.962;2024-02-21T12:27:24;10.70;99.90
6307;DHT22;3186;54.062;9.962;2024-02-21T12:29:50;10.70;99.90
6307;DHT22;3186;54.062;9.962;2024-02-21T12:32:16;10.70;99.90
6307;DHT22;3186;54.062;9.962;2024-02-21T12:34:42;10.70;99.90
6307;DHT22;3186;54.062;9.962;2024-02-21T12:37:07;10.70;99.90
6307;DHT22;3186;54.062;9.962;2024-02-21T12:39:33;10.60;99.90
6307;DHT22;3186;54.062;9.962;2024-02-21T12:41:59;10.50;99.90
6307;DHT22;3186;54.062;9.962;2024-02-21T12:44:26;10.30;99.90
6307;DHT22;3186;54.062;9.962;2024-02-21T12:46:51;10.40;99.90
6307;DHT22;3186;54.062;9.962;2024-02-21T12:49:19;13.10;99.90
6307;DHT22;3186;54.062;9.962;2024-02-21T12:51:44;10.30;99.90
6307;DHT22;3186;54.062;9.962;2024-02-21T12:54:12;10.30;99.90
6307;DHT22;3186;54.062;9.962;2024-02-21T12:56:38;10.30;99.90
6307;DHT22;3186;54.062;9.962;2024-02-21T12:59:05;10.20;99.90
6307;DHT22;3186;54.062;9.962;2024-02-21T13:01:35;10.20;99.90
6307;DHT22;3186;54.062;9.962;2024-02-21T13:04:01;10.20;99.90
6307;DHT22;3186;54.062;9.962;2024-02-21T13:06:27;8.00;99.90
6307;DHT22;3186;54.062;9.962;2024-02-21T13:08:53;10.20;99.90
6307;DHT22;3186;54.062;9.962;2024-02-21T13:11:19;10.10;99.90
6307;DHT22;3186;54.062;9.962;2024-02-21T13:13:45;10.20;99.90
6307;DHT22;3186;54.062;9.962;2024-02-21T13:16:10;10.20;99.90
6307;DHT22;3186;54.062;9.962;2024-02-21T13:18:36;10.20;99.90
6307;DHT22;3186;54.062;9.962;2024-02-21T13:21:07;10.10;99.90
6307;DHT22;3186;54.062;9.962;2024-02-21T13:23:33;10.10;99.90
6307;DHT22;3186;54.062;9.962;2024-02-21T13:25:59;10.10;99.90
6307;DHT22;3186;54.062;9.962;2024-02-21T13:28:24;10.00;99.90
6307;DHT22;3186;54.062;9.962;2024-02-21T13:30:50;10.00;99.90
6307;DHT22;3186;54.062;9.962;2024-02-21T13:33:16;10.00;99.90
6307;DHT22;3186;54.062;9.962;2024-02-21T13:38:07;9.90;99.90
6307;DHT22;3186;54.062;9.962;2024-02-21T13:40:35;10.00;99.90
6307;DHT22;3186;54.062;9.962;2024-02-21T13:43:01;10.00;99.90
6307;DHT22;3186;54.062;9.962;2024-02-21T13:45:27;10.00;99.90
6307;DHT22;3186;54.062;9.962;2024-02-21T13:47:52;10.10;99.90
6307;DHT22;3186;54.062;9.962;2024-02-21T13:50:19;9.90;99.90
6307;DHT22;3186;54.062;9.962;2024-02-21T13:52:54;9.90;99.90
6307;DHT22;3186;54.062;9.962;2024-02-21T13:55:19;10.00;99.90
6307;DHT22;3186;54.062;9.962;2024-02-21T13:57:47;10.00;99.90
6307;DHT22;3186;54.062;9.962;2024-02-21T14:00:13;10.00;99.90
6307;DHT22;3186;54.062;9.962;2024-02-21T14:02:39;9.90;99.90
6307;DHT22;3186;54.062;9.962;2024-02-21T14:05:05;9.90;99.90
6307;DHT22;3186;54.062;9.962;2024-02-21T14:07:32;9.90;99.90
6307;DHT22;3186;54.062;9.962;2024-02-21T14:09:58;10.00;99.90
6307;DHT22;3186;54.062;9.962;2024-02-21T14:12:24;9.90;99.90
6307;DHT22;3186;54.062;9.962;2024-02-21T14:14:50;9.90;99.90
6307;DHT22;3186;54.062;9.962;2024-02-21T14:17:15;10.00;99.90
6307;DHT22;3186;54.062;9.962;2024-02-21T14:19:41;10.00;99.90
6307;DHT22;3186;54.062;9.962;2024-02-21T14:22:07;10.00;99.90
6307;DHT22;3186;54.062;9.962;2024-02-21T14:24:32;10.00;99.90
6307;DHT22;3186;54.062;9.962;2024-02-21T14:26:58;10.00;99.90
6307;DHT22;3186;54.062;9.962;2024-02-21T14:29:25;10.00;99.90
6307;DHT22;3186;54.062;9.962;2024-02-21T14:31:50;9.90;99.90
6307;DHT22;3186;54.062;9.962;2024-02-21T14:34:16;9.90;99.90
6307;DHT22;3186;54.062;9.962;2024-02-21T14:36:42;9.90;99.90
6307;DHT22;3186;54.062;9.962;2024-02-21T14:39:07;10.00;99.90
6307;DHT22;3186;54.062;9.962;2024-02-21T14:41:33;10.00;99.90
6307;DHT22;3186;54.062;9.962;2024-02-21T14:44:00;10.00;99.90
6307;DHT22;3186;54.062;9.962;2024-02-21T14:46:27;10.00;99.90
6307;DHT22;3186;54.062;9.962;2024-02-21T14:48:56;10.00;99.90
6307;DHT22;3186;54.062;9.962;2024-02-21T14:51:21;10.10;99.90
6307;DHT22;3186;54.062;9.962;2024-02-21T14:53:47;10.10;99.90
6307;DHT22;3186;54.062;9.962;2024-02-21T14:56:14;10.10;99.90
6307;DHT22;3186;54.062;9.962;2024-02-21T14:58:41;10.10;99.90
6307;DHT22;3186;54.062;9.962;2024-02-21T15:01:07;10.10;99.90
6307;DHT22;3186;54.062;9.962;2024-02-21T15:03:33;10.10;99.90
6307;DHT22;3186;54.062;9.962;2024-02-21T15:05:58;9.90;99.90
6307;DHT22;3186;54.062;9.962;2024-02-21T15:08:26;10.00;99.90
6307;DHT22;3186;54.062;9.962;2024-02-21T15:10:53;10.00;99.90
6307;DHT22;3186;54.062;9.962;2024-02-21T15:13:19;10.00;99.90
6307;DHT22;3186;54.062;9.962;2024-02-21T15:15:45;10.00;99.90
6307;DHT22;3186;54.062;9.962;2024-02-21T15:18:14;10.10;99.90
6307;DHT22;3186;54.062;9.962;2024-02-21T15:20:40;10.00;99.90
6307;DHT22;3186;54.062;9.962;2024-02-21T15:23:06;9.90;99.90
6307;DHT22;3186;54.062;9.962;2024-02-21T15:25:32;9.90;99.90
6307;DHT22;3186;54.062;9.962;2024-02-21T15:27:59;10.00;99.90
6307;DHT22;3186;54.062;9.962;2024-02-21T15:30:25;10.00;99.90
6307;DHT22;3186;54.062;9.962;2024-02-21T15:32:50;10.00;99.90
6307;DHT22;3186;54.062;9.962;2024-02-21T15:35:16;9.90;99.90
6307;DHT22;3186;54.062;9.962;2024-02-21T15:37:42;9.90;99.90
6307;DHT22;3186;54.062;9.962;2024-02-21T15:40:07;10.00;99.90
6307;DHT22;3186;54.062;9.962;2024-02-21T15:42:34;9.90;99.90
6307;DHT22;3186;54.062;9.962;2024-02-21T15:44:59;9.90;99.90
6307;DHT22;3186;54.062;9.962;2024-02-21T15:47:31;10.00;99.90
6307;DHT22;3186;54.062;9.962;2024-02-21T15:49:57;9.90;99.90
6307;DHT22;3186;54.062;9.962;2024-02-21T15:52:24;9.90;99.90
6307;DHT22;3186;54.062;9.962;2024-02-21T15:54:50;9.90;99.90
6307;DHT22;3186;54.062;9.962;2024-02-21T15:57:16;9.80;99.90
6307;DHT22;3186;54.062;9.962;2024-02-21T15:59:41;9.80;99.90
6307;DHT22;3186;54.062;9.962;2024-02-21T16:02:07;9.80;99.90
6307;DHT22;3186;54.062;9.962;2024-02-21T16:04:33;9.80;99.90
6307;DHT22;3186;54.062;9.962;2024-02-21T16:07:01;9.80;99.90
6307;DHT22;3186;54.062;9.962;2024-02-21T16:09:28;9.80;99.90
6307;DHT22;3186;54.062;9.962;2024-02-21T16:11:58;9.80;99.90
6307;DHT22;3186;54.062;9.962;2024-02-21T16:14:23;9.70;99.90
6307;DHT22;3186;54.062;9.962;2024-02-21T16:16:50;9.80;99.90
6307;DHT22;3186;54.062;9.962;2024-02-21T16:19:15;9.90;99.90
6307;DHT22;3186;54.062;9.962;2024-02-21T16:21:41;9.80;99.90
6307;DHT22;3186;54.062;9.962;2024-02-21T16:24:08;9.80;99.90